Trenton, Illinois
Current Conditions -  °F | °C
As of 11:58 AM on Thursday 30 Oct 2014 (Local Time) from KBLV Reporting Station
Broken Clouds Broken Clouds  
Wind Chill: 51°   Ceiling: 10000
Heat Index: 51°   Visibility: 10mi
Dew Point: 42°   Wind: 6mph
Humidity: 72%   Direction: 170°S
Pressure: 30.12"   Gusts: NA
Location:  38.61°N, 89.68°W
Report Text: KBLV 301658Z AUTO 17005KT 10SM BKN100 11/06 A3012 RMK AO2 DZB1627E1637 SLP204 P0000 T01070058
Loading
Personal Weather Stations






























Interactive Weather Map
Tropical Storm Tracking
New forecast layout! Learn more

10-Day Weather Forecast

Advertisements
Track Severe Weather on mobile